Aérodrome :
LOGIN :

S'inscrire | Disclaimer

   EN    FR    IT 

 










Légende :    VFR   VFR Marginal   IFR   IFR Intensif   IFR Très Intensif
Visi : 
Plafond : 
>= 8 km
>= 3000ft
5 à 8 km
1000 à 3000 ft
1500m à 5 km
500 à 1000 ft
800 à 1500m
200 à 500 ft
< 800m
< 200 ft
Symboles :   Orages  Brouillard  Fortes neiges  Fortes précipitations  Vent > 20 kt
SIGMETs :   Divers  Orages  Givrage  Turbulence  Onde Orograph.  Cendres Volcan.






- Altitude de l'aérodrome : 1036 ft
- Code IATA : CLJ


LRCL - Cluj-Napoca International

DERNIER METAR :
  • 200800Z 06003KT 030V090 4000 BR FEW010 OVC029 M02/M03 Q1040 R07/19//95

METARs EXPIRÉS :
  • 200730Z 07003KT 3500 BR FEW011 OVC030 M02/M03 Q1040 R07/19//95
  • 200700Z 08004KT 010V120 3500 BR SCT011 OVC030 M02/M03 Q1040 R07/19//95
  • 200630Z 07003KT 3500 BR SCT010 OVC028 M02/M03 Q1039 R07/19//95
  • 200600Z VRB02KT 4000 BR BKN009 OVC030 M02/M03 Q1039 R07/19//95
  • 200530Z 09003KT 4000 BR BKN009 OVC030 M02/M03 Q1038 R07/19//95

TAF TAF LRCL
Valide du 20 à 06h jusqu'au 20 à 15h UTC


200500Z 2006/2015 VRB04KT 3000 BR BKN010 OVC035
TEMPO 2006/2008 1500 BR BKN005 OVC030
BECMG 2008/2010 7000 BKN040



MET'MAP, la Météo Aéronautique d'un coup d'oeil ! - Copyright ORBIFLY Décembre 2007 - Disclaimer

ORBIFLY MET'MAP TEAM :

Programmation & Développement : Alexandra Zaïnal
Sur une idée originale de : Baudouin d'Aumeries
Assistance à la programmation : Marc-Olivier Méhu
Soutien technique & logistique : Manuel Goepfert

Contact : metmap@orbifly.com




SOURCES & CREDITS :

   NOAA